M I D A S
Marine Information and Data Acquisition System
Tripno 1525 of the Zeeleeuw from 2008-07-24 07:07:13 to 2008-07-24 14:32:29
Back to CruiseResearch ActivitiesStationsMapUnderway DataData graphs

EquipmentUnitsComments
TimeDGPSUTC
LatitudeDGPSDM.mWGS84
LongitudeDGPSDM.mWGS84
SpeedMeteo Stationm/sRelative wind speed
DirectionMeteo StationdegRelative wind direction
TemperatureMeteo Stationdeg CelciusAir temperature
PressureMeteo StationPaAtmospheric pressure
HumidityMeteo Station%Relative humidity
Missing or incorrect values are displayed as -999
Metereological data collected by the RV Zeeleeuw from 2008-07-24 07:07:16 to 2008-07-24 14:45:47
Time Latitude Longitude Speed Direction Temperature Pressure Humidity
2008-07-24 07:08 51°13.627 2°56.023 -999 -999 -999 -999 -999
2008-07-24 07:09 51°13.652 2°55.944 -999 -999 -999 -999 -999
2008-07-24 07:10 51°13.681 2°55.848 2.1 27 18.3 -999 75
2008-07-24 07:11 51°13.729 2°55.759 2.6 320 18.4 101950 77
2008-07-24 07:12 51°13.757 2°55.686 3.7 337 18.5 101950 77
2008-07-24 07:13 51°13.768 2°55.698 4.4 12 18.3 101940 76
2008-07-24 07:14 51°13.77 2°55.676 3.2 28 18.3 101950 77
2008-07-24 07:15 51°13.868 2°55.613 2.3 353 18.3 101950 78
2008-07-24 07:16 51°13.98 2°55.533 2.8 20 18.3 101950 78
2008-07-24 07:17 51°14.083 2°55.449 1.3 3 18.3 101950 78
2008-07-24 07:18 51°14.207 2°55.325 2.4 359 18.3 101950 78
2008-07-24 07:19 51°14.33 2°55.131 0.8 347 18.3 101950 78
2008-07-24 07:20 51°14.435 2°54.864 1.7 29 18.3 101940 78
2008-07-24 07:21 51°14.526 2°54.567 1.4 327 18.4 101950 79
2008-07-24 07:22 51°14.609 2°54.265 0.9 317 18.5 101950 79
2008-07-24 07:23 51°14.699 2°53.966 1.2 335 18.6 101950 78
2008-07-24 07:24 51°14.797 2°53.679 2.5 338 18.6 101950 78
2008-07-24 07:25 51°14.893 2°53.393 3.7 342 18.6 101960 79
2008-07-24 07:26 51°14.987 2°53.104 3.5 345 18.6 101950 79
2008-07-24 07:27 51°15.082 2°52.808 2.7 340 18.4 101960 79
2008-07-24 07:28 51°15.175 2°52.521 2.5 346 18.4 101960 80
2008-07-24 07:29 51°15.273 2°52.231 2.6 343 18.3 101960 80
2008-07-24 07:30 51°15.373 2°51.94 2.2 341 18.3 101950 80
2008-07-24 07:31 51°15.473 2°51.649 2.1 338 18.3 101960 80
2008-07-24 07:32 51°15.58 2°51.357 2.6 349 18.3 101960 81
2008-07-24 07:33 51°15.684 2°51.078 1.9 348 18.3 101960 81
2008-07-24 07:34 51°15.783 2°50.789 2.9 351 18.2 101960 81
2008-07-24 07:35 51°15.88 2°50.496 3.2 354 18.1 101960 82
2008-07-24 07:36 51°16.01 2°50.243 4.2 354 18 101960 82
2008-07-24 07:37 51°16.179 2°50.063 5.3 1 18 101950 83
2008-07-24 07:38 51°16.362 2°49.919 5.1 -999 17.9 101950 83
2008-07-24 07:39 51°16.547 2°49.785 5.5 354 17.8 101950 84
2008-07-24 07:40 51°16.695 2°49.698 4.4 8 17.8 101950 84
2008-07-24 07:41 51°16.749 2°49.682 4.5 9 17.8 101950 84
2008-07-24 07:42 51°16.755 2°49.668 4.9 357 17.8 101950 85
2008-07-24 07:43 51°16.764 2°49.672 4.7 346 17.8 101950 85
2008-07-24 07:44 51°16.767 2°49.665 4.6 339 17.8 101950 85
2008-07-24 07:45 51°16.769 2°49.653 4.2 344 17.9 101950 85
2008-07-24 07:46 51°16.77 2°49.636 4.2 347 17.9 101950 85
2008-07-24 07:47 51°16.77 2°49.614 4.5 356 17.9 101960 85
2008-07-24 07:48 51°16.77 2°49.59 4.2 3 17.9 101960 85
2008-07-24 07:49 51°16.769 2°49.564 4.1 8 17.9 101950 85
2008-07-24 07:50 51°16.772 2°49.542 4.9 7 18 101950 85
2008-07-24 07:51 51°16.874 2°49.478 5.4 357 18 101950 85
2008-07-24 07:52 51°17.055 2°49.333 6.1 350 17.9 101950 85
2008-07-24 07:53 51°17.223 2°49.17 5.9 353 17.9 101950 84
2008-07-24 07:54 51°17.396 2°49.001 5.6 357 17.8 101950 85
2008-07-24 07:55 51°17.571 2°48.833 6 357 17.8 101950 85
2008-07-24 07:56 51°17.748 2°48.664 5.4 357 17.8 101950 85
2008-07-24 07:57 51°17.92 2°48.501 4.8 357 17.8 101940 85
2008-07-24 07:58 51°18.097 2°48.334 5.2 1 17.8 101950 85
2008-07-24 07:59 51°18.28 2°48.162 5 1 17.8 101950 85
2008-07-24 08:00 51°18.454 2°47.997 5.1 359 17.7 101950 85
2008-07-24 08:01 51°18.635 2°47.826 5.5 355 17.7 101950 86
2008-07-24 08:02 51°18.809 2°47.673 5.6 352 17.7 101950 85
2008-07-24 08:03 51°18.991 2°47.498 5.3 354 17.8 101950 86
2008-07-24 08:04 51°19.165 2°47.327 5.1 357 17.8 101950 86
2008-07-24 08:05 51°19.343 2°47.155 5 359 17.7 101950 85
2008-07-24 08:06 51°19.519 2°46.994 5.3 357 17.7 101950 86
2008-07-24 08:07 51°19.699 2°46.83 5.2 356 17.8 101950 86
2008-07-24 08:08 51°19.881 2°46.668 5.4 356 17.8 101940 86
2008-07-24 08:09 51°20.054 2°46.511 5.4 -999 17.8 101940 87
2008-07-24 08:10 51°20.238 2°46.337 5.4 1 17.7 101940 87
2008-07-24 08:11 51°20.413 2°46.175 5.8 358 17.6 101940 87
2008-07-24 08:12 51°20.596 2°46.004 5.7 357 17.6 101950 87
2008-07-24 08:13 51°20.773 2°45.841 5.6 357 17.6 101940 87
2008-07-24 08:14 51°20.958 2°45.688 6 358 17.6 101950 87
2008-07-24 08:15 51°21.149 2°45.531 5.7 1 17.6 101940 87
2008-07-24 08:16 51°21.32 2°45.369 5.7 360 17.6 101950 87
2008-07-24 08:17 51°21.505 2°45.198 5.3 2 17.6 101940 87
2008-07-24 08:18 51°21.683 2°45.036 5.9 359 17.5 101940 87
2008-07-24 08:19 51°21.863 2°44.869 5.8 1 17.6 101940 87
2008-07-24 08:20 51°22.045 2°44.705 5.4 4 17.6 101940 87
2008-07-24 08:21 51°22.228 2°44.539 5.6 3 17.6 101940 87
2008-07-24 08:22 51°22.404 2°44.376 5.7 -999 17.7 101940 87
2008-07-24 08:23 51°22.583 2°44.21 6 -999 17.6 101940 87
2008-07-24 08:24 51°22.761 2°44.043 6.3 1 17.6 101940 86
2008-07-24 08:25 51°22.942 2°43.884 5.6 3 17.6 101940 87
2008-07-24 08:26 51°23.123 2°43.722 5.3 3 17.6 101940 87
2008-07-24 08:27 51°23.302 2°43.554 5.9 2 17.6 101940 87
2008-07-24 08:28 51°23.486 2°43.382 5.1 3 17.6 101940 87
2008-07-24 08:29 51°23.664 2°43.223 6 1 17.6 101940 87
2008-07-24 08:30 51°23.844 2°43.058 5.9 -999 17.6 101940 87
2008-07-24 08:31 51°24.022 2°42.892 6.3 1 17.6 101940 87
2008-07-24 08:32 51°24.203 2°42.731 5.3 6 17.6 101940 86
2008-07-24 08:33 51°24.384 2°42.566 5.5 6 17.6 101940 87
2008-07-24 08:34 51°24.565 2°42.409 5.5 7 17.6 101940 86
2008-07-24 08:35 51°24.749 2°42.244 5.8 5 17.6 101950 87
2008-07-24 08:36 51°24.926 2°42.083 5.7 3 17.7 101950 87
2008-07-24 08:37 51°25.108 2°41.931 6.2 4 17.7 101950 86
2008-07-24 08:38 51°25.289 2°41.777 5.8 3 17.7 101940 86
2008-07-24 08:39 51°25.469 2°41.613 6.1 3 17.7 101940 87
2008-07-24 08:40 51°25.649 2°41.45 5.7 358 17.7 101940 87
2008-07-24 08:41 51°25.831 2°41.281 5.8 2 17.7 101940 87
2008-07-24 08:42 51°26.012 2°41.121 5.6 3 17.7 101940 87
2008-07-24 08:43 51°26.19 2°40.963 6.3 2 17.7 101940 88
2008-07-24 08:44 51°26.373 2°40.799 6 5 17.6 101950 87
2008-07-24 08:45 51°26.55 2°40.635 6.1 4 17.6 101940 88
2008-07-24 08:46 51°26.739 2°40.491 7.4 359 17.7 101940 88
2008-07-24 08:47 51°26.936 2°40.458 9.2 355 17.6 101930 88
2008-07-24 08:48 51°27.14 2°40.459 10 357 17.6 101930 88
2008-07-24 08:49 51°27.336 2°40.466 9.9 357 17.6 101930 88
2008-07-24 08:50 51°27.541 2°40.461 9 356 17.6 101930 88
2008-07-24 08:51 51°27.738 2°40.46 9.7 353 17.6 101940 88
2008-07-24 08:52 51°27.938 2°40.481 10.2 354 17.6 101930 89
2008-07-24 08:53 51°28.128 2°40.581 11.3 347 17.6 101930 89
2008-07-24 08:54 51°28.287 2°40.752 11.6 283 17.6 101930 89
2008-07-24 08:55 51°28.452 2°40.931 11.3 278 17.5 101940 89
2008-07-24 08:56 51°28.613 2°41.105 11.4 279 17.5 101930 90
2008-07-24 08:57 51°28.772 2°41.279 12.6 278 17.5 101930 90
2008-07-24 08:58 51°28.937 2°41.456 12 280 17.5 101920 89
2008-07-24 08:59 51°29.092 2°41.641 11.4 284 17.5 101930 90
2008-07-24 09:00 51°29.24 2°41.841 12 276 17.5 101930 90
2008-07-24 09:01 51°29.368 2°42.073 12.9 281 17.5 101920 90
2008-07-24 09:02 51°29.488 2°42.317 12.8 282 17.5 101930 90
2008-07-24 09:03 51°29.609 2°42.553 13 277 17.6 101930 89
2008-07-24 09:04 51°29.725 2°42.802 13.3 280 17.6 101930 90
2008-07-24 09:05 51°29.843 2°43.048 10.8 278 17.6 101930 89
2008-07-24 09:06 51°29.957 2°43.295 11.9 275 17.6 101930 89
2008-07-24 09:07 51°30.068 2°43.55 12.1 279 17.6 101930 89
2008-07-24 09:08 51°30.159 2°43.811 12.1 279 17.7 101940 89
2008-07-24 09:09 51°30.249 2°44.077 12.3 276 17.7 101930 89
2008-07-24 09:10 51°30.334 2°44.345 13.1 283 17.7 101930 88
2008-07-24 09:11 51°30.43 2°44.598 12.8 279 17.7 101930 88
2008-07-24 09:12 51°30.529 2°44.859 11.5 281 17.7 101920 88
2008-07-24 09:13 51°30.622 2°45.126 12.6 283 17.7 101930 88
2008-07-24 09:14 51°30.718 2°45.384 12.9 278 17.7 101930 88
2008-07-24 09:15 51°30.812 2°45.646 12 279 17.8 101930 88
2008-07-24 09:16 51°30.912 2°45.9 12.7 280 17.7 101930 88
2008-07-24 09:17 51°31.008 2°46.152 12.9 285 17.8 101930 88
2008-07-24 09:18 51°31.099 2°46.418 13.3 284 17.8 101930 88
2008-07-24 09:19 51°31.194 2°46.67 13.2 281 17.8 101930 88
2008-07-24 09:20 51°31.287 2°46.93 13 275 17.8 101920 87
2008-07-24 09:21 51°31.384 2°47.186 13.2 283 17.8 101930 87
2008-07-24 09:22 51°31.474 2°47.451 12.6 282 17.9 101930 87
2008-07-24 09:23 51°31.566 2°47.719 10.8 280 17.9 101930 87
2008-07-24 09:24 51°31.661 2°47.978 12.1 281 17.9 101930 87
2008-07-24 09:25 51°31.768 2°48.224 11.4 284 17.9 101930 87
2008-07-24 09:26 51°31.87 2°48.47 10.8 276 18 101930 87
2008-07-24 09:27 51°31.966 2°48.72 11 278 18 101930 86
2008-07-24 09:28 51°32.049 2°48.972 11.5 284 18 101930 86
2008-07-24 09:29 51°32.135 2°49.234 12.4 285 18 101930 86
2008-07-24 09:30 51°32.23 2°49.492 11.1 281 18.1 101930 86
2008-07-24 09:31 51°32.326 2°49.744 11.5 278 18.1 101930 85
2008-07-24 09:32 51°32.419 2°49.997 11.8 279 18.1 101930 85
2008-07-24 09:33 51°32.512 2°50.25 12.9 279 18.1 101930 85
2008-07-24 09:34 51°32.605 2°50.511 12.1 281 18.1 101940 85
2008-07-24 09:35 51°32.689 2°50.768 12.2 281 18.2 101940 85
2008-07-24 09:36 51°32.78 2°51.031 11.3 281 18.2 101940 86
2008-07-24 09:37 51°32.877 2°51.279 10.5 278 18.1 101940 86
2008-07-24 09:38 51°32.977 2°51.526 11.5 279 18.2 101940 86
2008-07-24 09:39 51°33.07 2°51.774 11.8 282 18.2 101940 86
2008-07-24 09:40 51°33.168 2°52.032 11.9 278 18.2 101940 86
2008-07-24 09:41 51°33.261 2°52.289 11.3 278 18.2 101940 86
2008-07-24 09:42 51°33.357 2°52.539 11.4 282 18.2 101940 86
2008-07-24 09:43 51°33.451 2°52.8 10.8 280 18.2 101940 87
2008-07-24 09:44 51°33.54 2°53.055 10.8 277 18.3 101940 87
2008-07-24 09:45 51°33.64 2°53.312 10.1 283 18.3 101950 87
2008-07-24 09:46 51°33.73 2°53.567 10.2 279 18.3 101940 87
2008-07-24 09:47 51°33.827 2°53.82 11.3 283 18.2 101940 87
2008-07-24 09:48 51°33.924 2°54.075 9.9 278 18.2 101930 87
2008-07-24 09:49 51°34.016 2°54.326 11.6 280 18.2 101930 87
2008-07-24 09:50 51°34.104 2°54.582 10 284 18.2 101940 87
2008-07-24 09:51 51°34.188 2°54.841 10.3 276 18.3 101940 87
2008-07-24 09:52 51°34.276 2°55.097 11 278 18.2 101940 87
2008-07-24 09:53 51°34.369 2°55.342 11.4 338 18.2 101940 87
2008-07-24 09:54 51°34.464 2°55.596 9.8 337 18.2 101940 87
2008-07-24 09:55 51°34.555 2°55.844 10.6 278 18.2 101940 87
2008-07-24 09:56 51°34.646 2°56.104 9.4 336 18.2 101940 87
2008-07-24 09:57 51°34.737 2°56.351 9.1 279 18.2 101940 88
2008-07-24 09:58 51°34.831 2°56.607 10.2 337 18.2 101940 88
2008-07-24 09:59 51°34.921 2°56.863 10.1 277 18.3 101930 88
2008-07-24 10:00 51°35.012 2°57.115 11 336 18.3 101920 92
2008-07-24 10:01 51°35.102 2°57.361 11.2 284 18.3 101930 92
2008-07-24 10:02 51°35.195 2°57.612 11.7 276 18.3 101920 92
2008-07-24 10:03 51°35.287 2°57.861 11.8 339 18.2 101920 92
2008-07-24 10:04 51°35.366 2°58.119 11.6 279 18.2 101920 92
2008-07-24 10:05 51°35.35 2°58.407 11.7 328 18.3 101920 92
2008-07-24 10:06 51°35.284 2°58.691 11.1 278 18.3 101910 92
2008-07-24 10:07 51°35.205 2°58.961 10.9 277 18.4 101910 92
2008-07-24 10:08 51°35.089 2°59.204 10.5 284 18.5 101910 92
2008-07-24 10:09 51°34.971 2°59.452 12.2 318 18.5 101900 91
2008-07-24 10:10 51°34.844 2°59.705 11.5 317 18.6 101910 91
2008-07-24 10:11 51°34.694 2°59.904 11.6 284 18.6 101910 91
2008-07-24 10:12 51°34.539 3°0.104 10.6 282 18.6 101910 91
2008-07-24 10:13 51°34.36 3°0.215 5.9 280 18.6 101910 91
2008-07-24 10:14 51°34.197 3°0.005 4.8 283 18.7 101940 91
2008-07-24 10:15 51°34.022 2°59.787 4.7 278 18.8 101930 92
2008-07-24 10:16 51°33.843 2°59.595 5.7 276 18.8 101930 92
2008-07-24 10:17 51°33.665 2°59.391 4.9 279 18.9 101930 91
2008-07-24 10:18 51°33.488 2°59.184 4.2 284 19 101930 91
2008-07-24 10:19 51°33.312 2°58.974 4.7 279 19.1 101920 88
2008-07-24 10:20 51°33.137 2°58.754 4.5 282 19.1 101920 88
2008-07-24 10:21 51°32.97 2°58.535 3.5 284 19.2 101930 87
2008-07-24 10:22 51°32.797 2°58.318 3.8 278 19.2 101920 87
2008-07-24 10:23 51°32.625 2°58.096 3.5 280 19.2 101920 87
2008-07-24 10:24 51°32.454 2°57.87 3.4 283 19.3 101930 87
2008-07-24 10:25 51°32.289 2°57.632 3.8 316 19.3 101920 87
2008-07-24 10:26 51°32.126 2°57.389 4.4 278 19.3 101920 87
2008-07-24 10:27 51°31.969 2°57.139 3.1 284 19.3 101920 87
2008-07-24 10:28 51°31.809 2°56.89 3.7 279 19.3 101920 87
2008-07-24 10:29 51°31.673 2°56.609 2.8 283 19.3 101920 86
2008-07-24 10:30 51°31.552 2°56.31 3.2 328 19.3 101930 86
2008-07-24 10:31 51°31.431 2°56.01 3.1 278 19.3 101920 85
2008-07-24 10:32 51°31.327 2°55.693 2.7 334 19.2 101930 85
2008-07-24 10:33 51°31.222 2°55.376 3.6 276 19.3 101920 85
2008-07-24 10:34 51°31.117 2°55.056 3.3 281 19.3 101920 86
2008-07-24 10:35 51°31.009 2°54.737 3.5 282 19.3 101920 85
2008-07-24 10:36 51°30.895 2°54.424 3.1 276 19.3 101920 85
2008-07-24 10:37 51°30.787 2°54.105 3.1 277 19.2 101920 85
2008-07-24 10:38 51°30.678 2°53.784 3.1 279 19.2 101920 85
2008-07-24 10:39 51°30.577 2°53.464 2.7 332 19.2 101920 87
2008-07-24 10:40 51°30.476 2°53.144 2.6 279 19.2 101910 87
2008-07-24 10:41 51°30.372 2°52.822 3 332 19.1 101910 87
2008-07-24 10:42 51°30.263 2°52.502 2.6 283 19.1 101910 87
2008-07-24 10:43 51°30.154 2°52.184 2.7 331 19.1 101910 87
2008-07-24 10:44 51°30.048 2°51.857 2 284 19.2 101910 87
2008-07-24 10:45 51°29.938 2°51.54 2 279 19.2 101900 87
2008-07-24 10:46 51°29.829 2°51.229 1.8 281 19.4 101900 87
2008-07-24 10:47 51°29.721 2°50.908 2 274 19.5 101900 87
2008-07-24 10:48 51°29.615 2°50.584 2.1 330 19.6 101900 86
2008-07-24 10:49 51°29.505 2°50.265 1.9 280 19.6 101900 85
2008-07-24 10:50 51°29.395 2°49.944 2.1 330 19.8 101900 85
2008-07-24 10:51 51°29.29 2°49.618 2.1 277 19.8 101890 84
2008-07-24 10:52 51°29.185 2°49.29 1.7 282 19.9 101890 84
2008-07-24 10:53 51°29.08 2°48.953 1.7 319 20 101900 83
2008-07-24 10:54 51°28.978 2°48.62 1.9 327 20.1 101890 83
2008-07-24 10:55 51°28.878 2°48.288 2 316 20.1 101890 82
2008-07-24 10:56 51°28.777 2°47.959 2 331 20.1 101890 82
2008-07-24 10:57 51°28.684 2°47.627 1.9 333 20.1 101880 81
2008-07-24 10:58 51°28.586 2°47.283 2.1 324 20.1 101880 81
2008-07-24 10:59 51°28.487 2°46.956 2 327 20 101880 80
2008-07-24 11:00 51°28.39 2°46.611 1.8 336 20.1 101880 81
2008-07-24 11:01 51°28.298 2°46.271 1.7 276 20.2 101880 80
2008-07-24 11:02 51°28.212 2°45.932 1.4 332 20.2 101880 80
2008-07-24 11:03 51°28.115 2°45.586 1.4 281 20.2 101880 80
2008-07-24 11:04 51°28.023 2°45.252 1.5 332 20.4 101880 80
2008-07-24 11:05 51°27.93 2°44.905 1.4 342 20.5 101870 80
2008-07-24 11:06 51°27.841 2°44.568 1.5 338 20.5 101880 78
2008-07-24 11:07 51°27.752 2°44.217 1.7 337 20.4 101870 78
2008-07-24 11:08 51°27.671 2°43.865 2.1 282 20.2 101870 78
2008-07-24 11:09 51°27.555 2°43.544 2.7 25 20 101870 79
2008-07-24 11:10 51°27.36 2°43.388 6.1 277 20 101860 80
2008-07-24 11:11 51°27.155 2°43.403 9.4 27 19.9 101850 79
2008-07-24 11:12 51°26.982 2°43.56 10 278 19.7 101840 79
2008-07-24 11:13 51°26.814 2°43.722 10.2 24 19.6 101840 80
2008-07-24 11:14 51°26.658 2°43.916 10.8 315 19.5 101830 80
2008-07-24 11:15 51°26.535 2°44.141 11 321 19.5 101840 81
2008-07-24 11:16 51°26.495 2°44.414 11 323 19.5 101840 80
2008-07-24 11:17 51°26.522 2°44.679 9.6 282 19.5 101840 80
2008-07-24 11:18 51°26.562 2°44.945 9.7 327 19.5 101850 81
2008-07-24 11:19 51°26.591 2°45.215 9.6 277 19.4 101840 81
2008-07-24 11:20 51°26.629 2°45.477 11.4 328 19.4 101840 83
2008-07-24 11:21 51°26.67 2°45.745 10.6 280 19.3 101840 82
2008-07-24 11:22 51°26.704 2°46.007 10.7 330 19.3 101840 82
2008-07-24 11:23 51°26.78 2°46.253 11 330 19.3 101840 82
2008-07-24 11:24 51°26.85 2°46.498 11.6 280 19.3 101830 82
2008-07-24 11:25 51°26.913 2°46.749 11 328 19.4 101830 82
2008-07-24 11:26 51°26.991 2°46.988 10.5 329 19.4 101830 83
2008-07-24 11:27 51°27.056 2°47.233 10.9 325 19.4 101830 84
2008-07-24 11:28 51°27.121 2°47.487 10.8 324 19.4 101830 85
2008-07-24 11:29 51°27.184 2°47.734 10.1 326 19.4 101830 86
2008-07-24 11:30 51°27.247 2°47.991 10.9 327 19.3 101830 87
2008-07-24 11:31 51°27.312 2°48.242 9.7 328 19.3 101830 87
2008-07-24 11:32 51°27.38 2°48.486 9.6 280 19.2 101830 87
2008-07-24 11:33 51°27.448 2°48.74 10.5 280 19.2 101830 87
2008-07-24 11:34 51°27.521 2°48.984 10.9 327 19.2 101830 87
2008-07-24 11:35 51°27.59 2°49.228 10.6 284 19.3 101830 88
2008-07-24 11:36 51°27.658 2°49.475 10 276 19.3 101820 88
2008-07-24 11:37 51°27.723 2°49.732 11.6 327 19.3 101830 88
2008-07-24 11:38 51°27.792 2°49.979 10.1 328 19.3 101820 88
2008-07-24 11:39 51°27.864 2°50.235 10.7 328 19.3 101820 88
2008-07-24 11:40 51°27.934 2°50.483 11.4 329 19.2 101810 88
2008-07-24 11:41 51°28.006 2°50.733 10.4 280 19.2 101820 88
2008-07-24 11:42 51°28.085 2°50.982 10.4 279 19.3 101820 88
2008-07-24 11:43 51°28.162 2°51.227 10.5 329 19.3 101820 88
2008-07-24 11:44 51°28.238 2°51.473 10.7 327 19.3 101810 87
2008-07-24 11:45 51°28.31 2°51.718 12.1 329 19.4 101820 88
2008-07-24 11:46 51°28.382 2°51.967 11.9 278 19.3 101810 89
2008-07-24 11:47 51°28.454 2°52.216 11.1 328 19.3 101820 89
2008-07-24 11:48 51°28.524 2°52.468 11 280 19.3 101810 89
2008-07-24 11:49 51°28.599 2°52.718 12 278 19.2 101820 89
2008-07-24 11:50 51°28.672 2°52.97 12.1 276 19.2 101820 89
2008-07-24 11:51 51°28.751 2°53.222 11.9 280 19.2 101810 89
2008-07-24 11:52 51°28.821 2°53.475 11.8 329 19.2 101810 89
2008-07-24 11:53 51°28.9 2°53.72 12 329 19.2 101810 89
2008-07-24 11:54 51°28.977 2°53.961 10.7 330 19.2 101810 89
2008-07-24 11:55 51°29.063 2°54.198 10.3 331 19.2 101810 89
2008-07-24 11:56 51°29.146 2°54.44 11.7 330 19.2 101810 88
2008-07-24 11:57 51°29.229 2°54.684 11.9 329 19.3 101810 88
2008-07-24 11:58 51°29.32 2°54.919 12.5 329 19.3 101800 88
2008-07-24 11:59 51°29.409 2°55.155 11.4 329 19.3 101790 88
2008-07-24 12:00 51°29.494 2°55.403 13 330 19.3 101800 88
2008-07-24 12:01 51°29.578 2°55.64 12.2 330 19.3 101800 87
2008-07-24 12:02 51°29.672 2°55.872 11.9 331 19.3 101800 87
2008-07-24 12:03 51°29.766 2°56.105 13.1 331 19.3 101790 87
2008-07-24 12:04 51°29.859 2°56.344 12.2 331 19.3 101790 87
2008-07-24 12:05 51°29.952 2°56.579 12.8 330 19.4 101790 87
2008-07-24 12:06 51°30.037 2°56.817 12.5 331 19.4 101790 86
2008-07-24 12:07 51°30.127 2°57.063 12.9 331 19.4 101780 86
2008-07-24 12:08 51°30.22 2°57.299 12.8 331 19.4 101790 86
2008-07-24 12:09 51°30.315 2°57.533 12.9 331 19.4 101790 85
2008-07-24 12:10 51°30.396 2°57.776 11.4 330 19.4 101790 85
2008-07-24 12:11 51°30.481 2°58.023 11.9 331 19.5 101790 85
2008-07-24 12:12 51°30.574 2°58.265 13 331 19.5 101790 84
2008-07-24 12:13 51°30.669 2°58.501 12.2 332 19.5 101790 84
2008-07-24 12:14 51°30.757 2°58.739 12.5 331 19.6 101790 83
2008-07-24 12:15 51°30.837 2°58.994 12.3 330 19.7 101790 82
2008-07-24 12:16 51°30.927 2°59.236 12.4 331 19.7 101790 82
2008-07-24 12:17 51°31.01 2°59.484 11.9 331 19.8 101780 81
2008-07-24 12:18 51°31.095 2°59.727 12.7 331 19.8 101790 81
2008-07-24 12:19 51°31.18 2°59.966 12.2 331 19.8 101780 81
2008-07-24 12:20 51°31.272 3°0.204 12.8 333 19.8 101780 80
2008-07-24 12:21 51°31.365 3°0.444 12.1 278 19.9 101770 80
2008-07-24 12:22 51°31.461 3°0.677 12.7 331 19.9 101780 81
2008-07-24 12:23 51°31.554 3°0.911 12.2 280 19.9 101770 80
2008-07-24 12:24 51°31.649 3°1.143 12.1 332 19.9 101780 80
2008-07-24 12:25 51°31.743 3°1.377 11.6 331 19.9 101770 79
2008-07-24 12:26 51°31.83 3°1.613 12.8 332 20 101760 78
2008-07-24 12:27 51°31.925 3°1.848 11.6 333 20 101770 78
2008-07-24 12:28 51°32.023 3°2.084 12.2 279 20 101770 78
2008-07-24 12:29 51°32.117 3°2.321 12.1 333 20.1 101770 78
2008-07-24 12:30 51°32.21 3°2.554 11.3 334 20.1 101780 77
2008-07-24 12:31 51°32.302 3°2.785 11.7 333 20.1 101770 77
2008-07-24 12:32 51°32.4 3°3.021 11.7 335 20.2 101780 78
2008-07-24 12:33 51°32.445 3°3.282 10.3 327 20.2 101780 77
2008-07-24 12:34 51°32.426 3°3.568 11.9 321 20.2 101770 78
2008-07-24 12:35 51°32.338 3°3.824 9.1 30 20.3 101770 77
2008-07-24 12:36 51°32.142 3°3.896 6.5 26 20.3 101780 77
2008-07-24 12:37 51°31.919 3°3.854 6.6 279 20.3 101780 77
2008-07-24 12:38 51°31.717 3°3.701 4.5 243 20.4 101780 77
2008-07-24 12:39 51°31.542 3°3.466 2.6 30 20.4 101780 77
2008-07-24 12:40 51°31.382 3°3.21 2.3 22 20.4 101780 77
2008-07-24 12:41 51°31.22 3°2.939 2.2 22 20.4 101780 77
2008-07-24 12:42 51°31.064 3°2.672 2.1 27 20.5 101770 77
2008-07-24 12:43 51°30.917 3°2.377 0.7 22 20.5 101770 76
2008-07-24 12:44 51°30.781 3°2.082 0.8 241 20.6 101770 76
2008-07-24 12:45 51°30.64 3°1.779 1.1 25 20.7 101770 76
2008-07-24 12:46 51°30.501 3°1.481 0.9 24 20.8 101770 76
2008-07-24 12:47 51°30.374 3°1.18 0.4 341 20.9 101760 75
2008-07-24 12:48 51°30.243 3°0.868 0.3 275 20.9 101760 75
2008-07-24 12:49 51°30.115 3°0.56 0.3 260 21 101760 75
2008-07-24 12:50 51°29.991 3°0.247 0.5 80 21.1 101760 74
2008-07-24 12:51 51°29.866 2°59.942 0.8 32 21.2 101760 74
2008-07-24 12:52 51°29.736 2°59.63 0.6 328 21.3 101760 73
2008-07-24 12:53 51°29.612 2°59.323 0.6 279 21.4 101750 73
2008-07-24 12:54 51°29.491 2°58.997 0.9 280 21.6 101750 73
2008-07-24 12:55 51°29.372 2°58.678 0.4 275 21.7 101750 72
2008-07-24 12:56 51°29.25 2°58.361 0.4 284 21.9 101750 72
2008-07-24 12:57 51°29.13 2°58.041 0.2 353 22 101750 71
2008-07-24 12:58 51°29.012 2°57.719 0.3 6 22.1 101750 70
2008-07-24 12:59 51°28.894 2°57.398 0.3 356 22 101750 69
2008-07-24 13:00 51°28.773 2°57.078 0.4 3 22 101750 70
2008-07-24 13:01 51°28.655 2°56.757 0.7 10 22 101740 69
2008-07-24 13:02 51°28.536 2°56.441 0.4 349 21.8 101740 69
2008-07-24 13:03 51°28.42 2°56.109 1.2 4 21.7 101740 70
2008-07-24 13:04 51°28.31 2°55.778 1.5 11 21.5 101740 71
2008-07-24 13:05 51°28.201 2°55.446 1.6 10 21.3 101730 73
2008-07-24 13:06 51°28.094 2°55.111 2.7 14 21 101730 75
2008-07-24 13:07 51°27.99 2°54.782 2.5 11 20.7 101730 76
2008-07-24 13:08 51°27.885 2°54.441 1.8 13 20.4 101730 78
2008-07-24 13:09 51°27.775 2°54.118 2.2 22 20.3 101730 79
2008-07-24 13:10 51°27.667 2°53.783 1.5 11 20.1 101730 79
2008-07-24 13:11 51°27.56 2°53.466 1.8 17 19.9 101730 79
2008-07-24 13:12 51°27.445 2°53.142 1.5 18 19.8 101720 80
2008-07-24 13:13 51°27.334 2°52.83 1.3 17 19.8 101720 80
2008-07-24 13:14 51°27.213 2°52.512 1.1 4 19.7 101720 82
2008-07-24 13:15 51°27.094 2°52.209 1.3 81 19.7 101720 82
2008-07-24 13:16 51°26.969 2°51.898 1.6 25 19.7 101720 82
2008-07-24 13:17 51°26.845 2°51.597 1 34 19.7 101720 83
2008-07-24 13:18 51°26.723 2°51.298 0.7 85 19.8 101720 82
2008-07-24 13:19 51°26.598 2°50.99 0.9 34 19.8 101710 82
2008-07-24 13:20 51°26.478 2°50.687 0.8 37 19.9 101710 81
2008-07-24 13:21 51°26.362 2°50.384 1.6 33 19.9 101710 81
2008-07-24 13:22 51°26.24 2°50.075 0.9 36 19.9 101700 80
2008-07-24 13:23 51°26.094 2°49.802 2 83 19.9 101700 80
2008-07-24 13:24 51°25.928 2°49.555 0.5 276 20.1 101700 81
2008-07-24 13:25 51°25.762 2°49.309 0.8 284 20.2 101690 81
2008-07-24 13:26 51°25.598 2°49.061 1.2 81 20.3 101690 80
2008-07-24 13:27 51°25.434 2°48.81 0.9 84 20.4 101690 79
2008-07-24 13:28 51°25.271 2°48.558 1.7 75 20.5 101690 79
2008-07-24 13:29 51°25.107 2°48.306 1.3 79 20.6 101690 79
2008-07-24 13:30 51°24.949 2°48.051 1.1 81 20.7 101690 78
2008-07-24 13:31 51°24.786 2°47.785 0.9 84 20.9 101690 78
2008-07-24 13:32 51°24.621 2°47.539 1.1 84 21 101680 77
2008-07-24 13:33 51°24.455 2°47.293 1.1 79 21 101680 76
2008-07-24 13:34 51°24.29 2°47.042 0.5 84 21.1 101680 76
2008-07-24 13:35 51°24.122 2°46.812 4.1 284 21.3 101680 76
2008-07-24 13:36 51°23.914 2°46.684 5.2 277 21.4 101680 75
2008-07-24 13:37 51°23.704 2°46.565 4 277 21.4 101670 74
2008-07-24 13:38 51°23.492 2°46.445 4.3 277 21.4 101670 74
2008-07-24 13:39 51°23.28 2°46.38 5.6 278 21.4 101670 74
2008-07-24 13:40 51°23.085 2°46.46 8.2 278 21.3 101660 74
2008-07-24 13:41 51°22.905 2°46.628 10.9 282 21.2 101650 73
2008-07-24 13:42 51°22.72 2°46.784 9.1 278 21 101650 74
2008-07-24 13:43 51°22.532 2°46.937 9.7 277 20.9 101650 74
2008-07-24 13:44 51°22.342 2°47.09 8.7 279 20.8 101640 74
2008-07-24 13:45 51°22.154 2°47.247 8.8 280 20.7 101640 74
2008-07-24 13:46 51°21.967 2°47.402 11 280 20.7 101640 74
2008-07-24 13:47 51°21.781 2°47.557 8.3 277 20.6 101640 75
2008-07-24 13:48 51°21.595 2°47.704 9.8 276 20.5 101640 75
2008-07-24 13:49 51°21.407 2°47.848 10.1 284 20.5 101650 75
2008-07-24 13:50 51°21.217 2°47.989 9.8 281 20.4 101640 75
2008-07-24 13:51 51°21.026 2°48.125 8 279 20.4 101640 75
2008-07-24 13:52 51°20.836 2°48.261 7.5 276 20.4 101640 75
2008-07-24 13:53 51°20.653 2°48.387 8.9 278 20.4 101630 75
2008-07-24 13:54 51°20.47 2°48.532 7.8 278 20.4 101640 75
2008-07-24 13:55 51°20.293 2°48.681 10.6 283 20.5 101630 75
2008-07-24 13:56 51°20.117 2°48.836 8 277 20.5 101630 75
2008-07-24 13:57 51°19.939 2°48.987 7.7 283 20.6 101620 75
2008-07-24 13:58 51°19.765 2°49.141 9 278 20.6 101620 75
2008-07-24 13:59 51°19.594 2°49.325 8.5 278 20.6 101610 74
2008-07-24 14:00 51°19.42 2°49.499 8.1 284 20.6 101610 74
2008-07-24 14:01 51°19.248 2°49.675 10.8 275 20.6 101610 74
2008-07-24 14:02 51°19.076 2°49.856 10.8 278 20.6 101600 74
2008-07-24 14:03 51°18.912 2°50.049 8.4 281 20.6 101600 74
2008-07-24 14:04 51°18.733 2°50.231 11.3 279 20.6 101600 75
2008-07-24 14:05 51°18.558 2°50.408 11.4 279 20.6 101590 75
2008-07-24 14:06 51°18.381 2°50.594 9.4 285 20.5 101590 75
2008-07-24 14:07 51°18.205 2°50.771 10.1 281 20.5 101590 74
2008-07-24 14:08 51°18.028 2°50.95 10.4 279 20.5 101590 74
2008-07-24 14:09 51°17.854 2°51.135 10.2 283 20.6 101590 75
2008-07-24 14:10 51°17.686 2°51.328 11.2 280 20.6 101580 74
2008-07-24 14:11 51°17.521 2°51.527 10.3 280 20.6 101570 74
2008-07-24 14:12 51°17.352 2°51.722 10.2 280 20.6 101570 73
2008-07-24 14:13 51°17.18 2°51.909 10.2 274 20.7 101560 73
2008-07-24 14:14 51°17.01 2°52.098 10.6 276 20.8 101570 71
2008-07-24 14:15 51°16.841 2°52.293 9.1 275 20.9 101570 71
2008-07-24 14:16 51°16.671 2°52.478 9.7 276 21.1 101570 71
2008-07-24 14:17 51°16.497 2°52.675 11.9 282 21.1 101570 71
2008-07-24 14:18 51°16.327 2°52.866 9.1 278 21 101570 71
2008-07-24 14:19 51°16.152 2°53.048 10.2 283 21.1 101560 69
2008-07-24 14:20 51°15.98 2°53.23 10.1 278 21.3 101560 70
2008-07-24 14:21 51°15.811 2°53.412 12.6 285 21.4 101550 69
2008-07-24 14:22 51°15.648 2°53.593 8.9 277 21.5 101550 68
2008-07-24 14:23 51°15.501 2°53.762 10.5 277 21.6 101560 70
2008-07-24 14:24 51°15.34 2°53.952 9.3 280 21.6 101550 69
2008-07-24 14:25 51°15.19 2°54.165 7.8 277 21.6 101550 68
2008-07-24 14:26 51°15.037 2°54.369 9.1 280 21.7 101560 68
2008-07-24 14:27 51°14.894 2°54.549 7.9 278 21.9 101550 65
2008-07-24 14:28 51°14.808 2°54.672 6.9 284 22.6 101540 59
2008-07-24 14:29 51°14.743 2°54.761 9.4 278 23.3 101540 58
2008-07-24 14:30 51°14.681 2°54.844 9.8 282 23.7 101540 43
2008-07-24 14:31 51°14.573 2°54.927 10.3 280 24.1 101530 44
2008-07-24 14:32 51°14.406 2°55.035 13.1 280 24.4 101520 40
2008-07-24 14:33 51°14.263 2°55.231 14.2 283 24.6 101520 41
2008-07-24 14:34 51°14.163 2°55.383 8.8 277 25 101530 39
2008-07-24 14:35 51°14.051 2°55.468 11 281 25.3 101540 37
2008-07-24 14:36 51°13.938 2°55.548 9.9 279 25.4 101530 37
2008-07-24 14:37 51°13.859 2°55.602 9.6 277 25.6 101530 36
2008-07-24 14:38 51°13.781 2°55.669 8.1 283 25.7 101530 36
2008-07-24 14:39 51°13.713 2°55.773 7 275 25.8 101530 37
2008-07-24 14:40 51°13.667 2°55.878 8 280 25.9 101530 37
2008-07-24 14:41 51°13.636 2°55.971 9.1 278 25.9 101520 36
2008-07-24 14:42 51°13.627 2°56.034 4.7 280 25.8 101520 37
2008-07-24 14:43 51°13.623 2°56.048 6.6 280 25.9 101520 37
2008-07-24 14:44 51°13.623 2°56.048 2.9 278 26 101520 35
2008-07-24 14:45 51°13.623 2°56.048 8.1 280 26.1 101520 36